Time;durP1;ratioP1;P1;durP2;ratioP2;P2;SDS_P1;SDS_P2;PMS_P1;PMS_P2;Temp;Humidity;BMP_temperature;BMP_pressure;BME280_temperature;BME280_humidity;BME280_pressure;Samples;Min_cycle;Max_cycle;Signal;HPM_P1;HPM_P2
2022/06/24 00:01:57;;;;;;;;;;;23.40;60.80;;;;;;5115940;27;19927;-72
2022/06/24 00:04:25;;;;;;;;;;;23.40;60.80;;;;;;5115885;27;19931;-71
2022/06/24 00:06:50;;;;;;;;;;;23.40;60.80;;;;;;5096649;27;20287;-72
2022/06/24 00:09:17;;;;;;;;;;;23.40;60.80;;;;;;5115565;27;19927;-72
2022/06/24 00:11:43;;;;;;;;;;;23.40;60.80;;;;;;5093940;27;19923;-72
2022/06/24 00:14:09;;;;;;;;;;;23.40;60.80;;;;;;5115087;27;20397;-72
2022/06/24 00:16:54;;;;;;;;;;;23.40;60.80;;;;;;5116833;27;19977;-71
2022/06/24 00:19:19;;;;;;;;;;;23.40;60.80;;;;;;5112867;27;20232;-71
2022/06/24 00:21:58;;;;;;;;;;;23.40;60.80;;;;;;5094241;27;19942;-72
2022/06/24 00:24:24;;;;;;;;;;;23.40;60.80;;;;;;5114960;27;19935;-67
2022/06/24 00:26:49;;;;;;;;;;;23.40;60.80;;;;;;5114773;27;19923;-69
2022/06/24 00:29:18;;;;;;;;;;;23.40;60.80;;;;;;5113270;27;19927;-67
2022/06/24 00:32:00;;;;;;;;;;;23.40;60.80;;;;;;5114436;27;19987;-72
2022/06/24 00:34:25;;;;;;;;;;;23.40;60.80;;;;;;5095263;27;19930;-70
2022/06/24 00:36:51;;;;;;;;;;;23.40;60.80;;;;;;5095688;27;20290;-70
2022/06/24 00:39:16;;;;;;;;;;;23.40;60.80;;;;;;5112612;27;20010;-69
2022/06/24 00:41:42;;;;;;;;;;;23.40;61.00;;;;;;5093815;27;20435;-70
2022/06/24 00:44:09;;;;;;;;;;;23.40;61.60;;;;;;5113764;27;19969;-70
2022/06/24 00:46:36;;;;;;;;;;;23.40;62.00;;;;;;5095732;27;19926;-70
2022/06/24 00:49:03;;;;;;;;;;;23.40;62.10;;;;;;5111235;27;20367;-70
2022/06/24 00:51:32;;;;;;;;;;;23.40;62.10;;;;;;5113987;27;19923;-70
2022/06/24 00:53:58;;;;;;;;;;;23.40;62.20;;;;;;5094799;27;20470;-70
2022/06/24 00:56:26;;;;;;;;;;;23.40;62.10;;;;;;5113499;27;19923;-70
2022/06/24 00:58:56;;;;;;;;;;;23.40;62.10;;;;;;5096528;27;19923;-70
2022/06/24 01:01:41;;;;;;;;;;;23.40;62.20;;;;;;5095781;27;19923;-71
2022/06/24 01:04:10;;;;;;;;;;;23.40;62.10;;;;;;5102554;27;19923;-71
2022/06/24 01:06:37;;;;;;;;;;;23.40;62.10;;;;;;5115305;27;19939;-71
2022/06/24 01:09:03;;;;;;;;;;;23.40;62.10;;;;;;5112802;27;19923;-69
2022/06/24 01:11:30;;;;;;;;;;;23.40;62.00;;;;;;5112076;27;19923;-70
2022/06/24 01:13:56;;;;;;;;;;;23.40;62.10;;;;;;5114938;27;20353;-70
2022/06/24 01:16:24;;;;;;;;;;;23.40;62.00;;;;;;5112289;27;20030;-71
2022/06/24 01:18:53;;;;;;;;;;;23.40;62.00;;;;;;5113660;27;19920;-68
2022/06/24 01:21:34;;;;;;;;;;;23.40;62.00;;;;;;5093749;27;19984;-71
2022/06/24 01:24:04;;;;;;;;;;;23.40;61.90;;;;;;5112759;27;20267;-71
2022/06/24 01:26:29;;;;;;;;;;;23.40;61.90;;;;;;5093897;27;20610;-70
2022/06/24 01:28:55;;;;;;;;;;;23.40;61.80;;;;;;5112212;27;19930;-70
2022/06/24 01:31:20;;;;;;;;;;;23.40;61.80;;;;;;5113852;27;19974;-71
2022/06/24 01:33:45;;;;;;;;;;;23.40;61.80;;;;;;5113065;27;19928;-70
2022/06/24 01:36:11;;;;;;;;;;;23.40;61.80;;;;;;5113181;27;20406;-71
2022/06/24 01:38:37;;;;;;;;;;;23.40;61.80;;;;;;5115126;27;19923;-72
2022/06/24 01:41:02;;;;;;;;;;;23.40;61.70;;;;;;5092632;27;20663;-71
2022/06/24 01:43:27;;;;;;;;;;;23.40;61.70;;;;;;5114135;27;19923;-71
2022/06/24 01:45:53;;;;;;;;;;;23.40;61.60;;;;;;5111991;27;19923;-71
2022/06/24 01:48:18;;;;;;;;;;;23.40;61.60;;;;;;5096675;27;19931;-71
2022/06/24 01:50:44;;;;;;;;;;;23.40;61.60;;;;;;5111361;27;20323;-71
2022/06/24 01:53:09;;;;;;;;;;;23.40;61.50;;;;;;5114382;27;19928;-71
2022/06/24 01:55:35;;;;;;;;;;;23.40;61.50;;;;;;5112758;27;19927;-71
2022/06/24 01:58:00;;;;;;;;;;;23.40;61.40;;;;;;5114094;27;19928;-72
2022/06/24 02:00:26;;;;;;;;;;;23.40;61.40;;;;;;5093789;27;20783;-72
2022/06/24 02:02:51;;;;;;;;;;;23.40;61.40;;;;;;5112857;27;20038;-71
2022/06/24 02:05:17;;;;;;;;;;;23.40;61.30;;;;;;5093174;27;19967;-71
2022/06/24 02:07:43;;;;;;;;;;;23.40;61.30;;;;;;5093366;27;20006;-71
2022/06/24 02:15:37;;;;;;;;;;;23.40;61.20;;;;;;5091823;27;20006;-71
2022/06/24 02:18:02;;;;;;;;;;;23.40;61.10;;;;;;5108965;27;19920;-71
2022/06/24 02:20:28;;;;;;;;;;;23.40;61.10;;;;;;5110089;27;19926;-72
2022/06/24 02:22:53;;;;;;;;;;;23.40;61.10;;;;;;5110713;27;19934;-70
2022/06/24 02:25:19;;;;;;;;;;;23.40;61.00;;;;;;5091513;28;20417;-70
2022/06/24 02:27:45;;;;;;;;;;;23.40;61.00;;;;;;5112904;27;19920;-70
2022/06/24 02:30:11;;;;;;;;;;;23.40;60.90;;;;;;5110386;27;20436;-70
2022/06/24 02:32:36;;;;;;;;;;;23.40;60.90;;;;;;5110703;27;19923;-70
2022/06/24 02:35:02;;;;;;;;;;;23.40;60.90;;;;;;5112740;27;19935;-71
2022/06/24 02:37:27;;;;;;;;;;;23.40;60.80;;;;;;5113555;28;19949;-72
2022/06/24 02:39:53;;;;;;;;;;;23.40;60.80;;;;;;5112206;28;20699;-70
2022/06/24 02:42:18;;;;;;;;;;;23.40;60.80;;;;;;5110131;28;19927;-71
2022/06/24 02:44:44;;;;;;;;;;;23.40;60.80;;;;;;5095805;28;19927;-70
2022/06/24 02:47:09;;;;;;;;;;;23.40;60.80;;;;;;5111242;28;19965;-69
2022/06/24 02:49:35;;;;;;;;;;;23.40;60.70;;;;;;5113723;28;19927;-70
2022/06/24 02:52:00;;;;;;;;;;;23.40;60.70;;;;;;5110648;28;19931;-71
2022/06/24 02:54:26;;;;;;;;;;;23.30;60.70;;;;;;5111759;28;20325;-70
2022/06/24 02:56:51;;;;;;;;;;;23.40;60.60;;;;;;5113324;28;19971;-70
2022/06/24 02:59:17;;;;;;;;;;;23.40;60.60;;;;;;5095329;27;19930;-70
2022/06/24 03:01:42;;;;;;;;;;;23.40;60.60;;;;;;5111628;27;20578;-71
2022/06/24 03:04:08;;;;;;;;;;;23.40;60.50;;;;;;5098767;28;20027;-70
2022/06/24 03:06:33;;;;;;;;;;;23.40;60.50;;;;;;5094026;28;20213;-70
2022/06/24 03:08:59;;;;;;;;;;;23.40;60.50;;;;;;5092423;28;19923;-70
2022/06/24 03:11:24;;;;;;;;;;;23.40;60.40;;;;;;5094066;28;19935;-70
2022/06/24 03:13:50;;;;;;;;;;;23.40;60.40;;;;;;5112921;28;20361;-70
2022/06/24 03:16:15;;;;;;;;;;;23.30;60.30;;;;;;5111723;27;19924;-70
2022/06/24 03:18:41;;;;;;;;;;;23.40;60.40;;;;;;5098619;28;19928;-70
2022/06/24 03:21:08;;;;;;;;;;;23.40;60.30;;;;;;5111386;28;19930;-71
2022/06/24 03:23:33;;;;;;;;;;;23.30;60.20;;;;;;5112359;27;20015;-71
2022/06/24 03:26:01;;;;;;;;;;;23.40;60.30;;;;;;5113895;27;19924;-69
2022/06/24 03:28:26;;;;;;;;;;;23.30;60.20;;;;;;5096305;28;19939;-70
2022/06/24 03:30:52;;;;;;;;;;;23.40;60.30;;;;;;5112367;27;20247;-70
2022/06/24 03:33:17;;;;;;;;;;;23.30;60.20;;;;;;5111661;28;19937;-70
2022/06/24 03:35:43;;;;;;;;;;;23.30;60.20;;;;;;5112496;28;19920;-70
2022/06/24 03:38:08;;;;;;;;;;;23.30;60.10;;;;;;5112887;27;19924;-70
2022/06/24 03:40:34;;;;;;;;;;;23.30;60.20;;;;;;5110927;28;20358;-70
2022/06/24 03:42:59;;;;;;;;;;;23.40;60.20;;;;;;5108386;28;19949;-69
2022/06/24 03:45:25;;;;;;;;;;;23.40;60.20;;;;;;5112663;27;19926;-71
2022/06/24 03:47:51;;;;;;;;;;;23.30;60.10;;;;;;5115807;27;20449;-71
2022/06/24 03:50:16;;;;;;;;;;;23.30;60.20;;;;;;5116682;27;19928;-70
2022/06/24 03:52:42;;;;;;;;;;;23.30;60.20;;;;;;5115265;27;19923;-69
2022/06/24 03:55:08;;;;;;;;;;;23.40;60.20;;;;;;5102471;27;20104;-71
2022/06/24 03:57:33;;;;;;;;;;;23.30;60.20;;;;;;5080908;27;20769;-71
2022/06/24 03:59:59;;;;;;;;;;;23.30;60.20;;;;;;5096362;27;19960;-71
2022/06/24 04:02:24;;;;;;;;;;;23.30;60.20;;;;;;5114070;27;19924;-71
2022/06/24 04:04:50;;;;;;;;;;;23.30;60.20;;;;;;5096098;27;20011;-71
2022/06/24 04:07:16;;;;;;;;;;;23.30;60.30;;;;;;5113663;27;20354;-69
2022/06/24 04:09:41;;;;;;;;;;;23.30;60.30;;;;;;5115011;27;20455;-71
2022/06/24 04:12:07;;;;;;;;;;;23.30;60.40;;;;;;5099267;27;19930;-71
2022/06/24 04:17:17;;;;;;;;;;;23.30;60.50;;;;;;5096720;27;19931;-69
2022/06/24 04:19:42;;;;;;;;;;;23.30;60.50;;;;;;5114330;27;19924;-69
2022/06/24 04:22:07;;;;;;;;;;;23.40;60.80;;;;;;5112263;27;19928;-69
2022/06/24 04:24:33;;;;;;;;;;;23.40;60.80;;;;;;5094064;27;20012;-70
2022/06/24 04:26:59;;;;;;;;;;;23.30;60.70;;;;;;5079533;27;19920;-69
2022/06/24 04:29:24;;;;;;;;;;;23.30;60.70;;;;;;5114186;27;20140;-69
2022/06/24 04:31:50;;;;;;;;;;;23.30;60.80;;;;;;5113029;27;19923;-69
2022/06/24 04:34:15;;;;;;;;;;;23.30;60.80;;;;;;5112637;27;20592;-71
2022/06/24 04:36:41;;;;;;;;;;;23.30;60.80;;;;;;5114076;27;19955;-70
2022/06/24 04:39:06;;;;;;;;;;;23.30;60.90;;;;;;5109697;27;20482;-71
2022/06/24 04:41:32;;;;;;;;;;;23.30;60.90;;;;;;5110840;27;19923;-70
2022/06/24 04:43:57;;;;;;;;;;;23.30;61.10;;;;;;5094356;27;19952;-71
2022/06/24 04:46:23;;;;;;;;;;;23.30;61.10;;;;;;5093771;27;20619;-71
2022/06/24 04:48:48;;;;;;;;;;;23.30;61.10;;;;;;5095815;27;19919;-71
2022/06/24 04:51:14;;;;;;;;;;;23.30;61.20;;;;;;5114150;27;19919;-71
2022/06/24 04:53:39;;;;;;;;;;;23.30;61.20;;;;;;5113333;27;20430;-70
2022/06/24 04:56:05;;;;;;;;;;;23.30;61.20;;;;;;5093924;27;20410;-71
2022/06/24 04:58:30;;;;;;;;;;;23.30;61.30;;;;;;5112653;27;19935;-68
2022/06/24 05:00:56;;;;;;;;;;;23.30;61.40;;;;;;5097059;27;20261;-71
2022/06/24 05:03:22;;;;;;;;;;;23.30;61.50;;;;;;5095142;27;20290;-70
2022/06/24 05:05:47;;;;;;;;;;;23.30;61.50;;;;;;5095941;27;19926;-71
2022/06/24 05:08:12;;;;;;;;;;;23.30;61.60;;;;;;5094290;27;19950;-71
2022/06/24 05:10:40;;;;;;;;;;;23.30;61.60;;;;;;5114378;27;19969;-71
2022/06/24 05:13:05;;;;;;;;;;;23.30;61.50;;;;;;5097831;27;19923;-71
2022/06/24 05:15:31;;;;;;;;;;;23.30;61.60;;;;;;5114489;27;19935;-72
2022/06/24 05:17:56;;;;;;;;;;;23.30;61.60;;;;;;5112890;27;19996;-70
2022/06/24 05:20:22;;;;;;;;;;;23.30;61.70;;;;;;5093003;27;20176;-72
2022/06/24 05:22:48;;;;;;;;;;;23.30;61.80;;;;;;5075344;27;19919;-69
2022/06/24 05:25:13;;;;;;;;;;;23.40;62.00;;;;;;5112787;27;20511;-70
2022/06/24 05:27:39;;;;;;;;;;;23.30;61.90;;;;;;5114613;27;20272;-71
2022/06/24 05:30:05;;;;;;;;;;;23.30;61.80;;;;;;5078853;27;20367;-71
2022/06/24 05:32:31;;;;;;;;;;;23.30;61.80;;;;;;5111987;27;19928;-70
2022/06/24 05:34:57;;;;;;;;;;;23.30;61.80;;;;;;5109358;27;19969;-70
2022/06/24 05:37:22;;;;;;;;;;;23.30;61.80;;;;;;5111034;27;19930;-72
2022/06/24 05:39:48;;;;;;;;;;;23.40;62.00;;;;;;5114021;27;19923;-71
2022/06/24 05:42:13;;;;;;;;;;;23.40;62.00;;;;;;5112039;27;20476;-74
2022/06/24 05:44:39;;;;;;;;;;;23.40;62.00;;;;;;5108894;27;19926;-73
2022/06/24 05:47:04;;;;;;;;;;;23.30;62.00;;;;;;5078945;27;20350;-73
2022/06/24 05:49:30;;;;;;;;;;;23.30;62.00;;;;;;5111128;27;19923;-73
2022/06/24 05:51:55;;;;;;;;;;;23.30;62.00;;;;;;5112728;27;19930;-72
2022/06/24 05:57:05;;;;;;;;;;;23.40;62.10;;;;;;5112047;27;19980;-72
2022/06/24 05:59:31;;;;;;;;;;;23.30;62.10;;;;;;5103515;27;19935;-68
2022/06/24 06:01:56;;;;;;;;;;;23.30;62.10;;;;;;5095146;27;19991;-69
2022/06/24 06:04:22;;;;;;;;;;;23.30;62.10;;;;;;5092444;27;19929;-72
2022/06/24 06:06:48;;;;;;;;;;;23.30;62.30;;;;;;5092476;27;20435;-71
2022/06/24 06:09:14;;;;;;;;;;;23.30;62.50;;;;;;5108211;27;20806;-73
2022/06/24 06:11:39;;;;;;;;;;;23.30;62.80;;;;;;5113010;27;19931;-67
2022/06/24 06:14:05;;;;;;;;;;;23.30;63.00;;;;;;5095116;27;19927;-68
2022/06/24 06:16:30;;;;;;;;;;;23.40;63.10;;;;;;5112780;27;20050;-68
2022/06/24 06:18:56;;;;;;;;;;;23.30;63.30;;;;;;5093562;27;20191;-68
2022/06/24 06:21:21;;;;;;;;;;;23.40;63.70;;;;;;5103026;27;19927;-70
2022/06/24 06:23:47;;;;;;;;;;;23.40;65.80;;;;;;5112338;27;19923;-67
2022/06/24 06:26:13;;;;;;;;;;;23.40;65.70;;;;;;5111080;27;19939;-69
2022/06/24 06:28:41;;;;;;;;;;;23.40;66.70;;;;;;5111330;27;20859;-71
2022/06/24 06:31:07;;;;;;;;;;;23.40;67.60;;;;;;5098049;28;20026;-70
2022/06/24 06:33:33;;;;;;;;;;;23.40;67.90;;;;;;5109774;27;19958;-70
2022/06/24 06:36:06;;;;;;;;;;;23.40;67.50;;;;;;5095162;28;20334;-72
2022/06/24 06:38:31;;;;;;;;;;;23.40;67.50;;;;;;5105169;27;20413;-72
2022/06/24 06:40:57;;;;;;;;;;;23.40;68.10;;;;;;5108641;27;19924;-60
2022/06/24 06:43:22;;;;;;;;;;;23.40;68.60;;;;;;5094502;28;20267;-68
2022/06/24 06:45:48;;;;;;;;;;;23.40;69.00;;;;;;5107487;28;19966;-68
2022/06/24 06:48:13;;;;;;;;;;;23.40;69.50;;;;;;5109802;28;19923;-68
2022/06/24 06:50:39;;;;;;;;;;;23.50;69.90;;;;;;5109529;27;19928;-66
2022/06/24 06:53:04;;;;;;;;;;;23.50;69.90;;;;;;5110056;27;19920;-68
2022/06/24 06:55:30;;;;;;;;;;;23.50;70.30;;;;;;5097500;28;19924;-67
2022/06/24 06:57:55;;;;;;;;;;;23.50;69.90;;;;;;5113408;28;19930;-68
2022/06/24 07:00:21;;;;;;;;;;;23.50;70.50;;;;;;5110287;28;20657;-73
2022/06/24 07:02:46;;;;;;;;;;;23.50;70.70;;;;;;5091508;28;19974;-68
2022/06/24 07:05:12;;;;;;;;;;;23.50;70.70;;;;;;5090407;28;19987;-67
2022/06/24 07:07:38;;;;;;;;;;;23.50;70.80;;;;;;5109604;27;19923;-66
2022/06/24 07:10:03;;;;;;;;;;;23.50;70.90;;;;;;5108551;27;19973;-69
2022/06/24 07:12:29;;;;;;;;;;;23.50;71.00;;;;;;5110935;28;19920;-60
2022/06/24 07:14:54;;;;;;;;;;;23.50;71.00;;;;;;5110421;27;20046;-64
2022/06/24 07:17:20;;;;;;;;;;;23.50;71.10;;;;;;5089727;27;19929;-67
2022/06/24 07:19:46;;;;;;;;;;;23.50;71.30;;;;;;5110263;27;20510;-67
2022/06/24 07:22:12;;;;;;;;;;;23.50;71.30;;;;;;5110982;27;19927;-68
2022/06/24 07:24:37;;;;;;;;;;;23.50;71.40;;;;;;5114394;27;20376;-67
2022/06/24 07:27:03;;;;;;;;;;;23.50;71.50;;;;;;5114425;27;19931;-66
2022/06/24 07:29:33;;;;;;;;;;;23.50;71.50;;;;;;5112721;27;19943;-66
2022/06/24 07:32:05;;;;;;;;;;;23.50;71.40;;;;;;5112560;27;19923;-67
2022/06/24 07:34:31;;;;;;;;;;;23.50;71.40;;;;;;5093718;27;19934;-68
2022/06/24 07:36:57;;;;;;;;;;;23.50;72.00;;;;;;5101187;27;19927;-69
2022/06/24 07:39:23;;;;;;;;;;;23.50;71.20;;;;;;5112009;27;19924;-67
2022/06/24 07:41:48;;;;;;;;;;;23.50;71.30;;;;;;5112747;27;19968;-67
2022/06/24 07:44:14;;;;;;;;;;;23.50;71.10;;;;;;5112156;27;20422;-65
2022/06/24 07:46:39;;;;;;;;;;;23.50;71.00;;;;;;5115775;27;19927;-59
2022/06/24 07:49:05;;;;;;;;;;;23.50;71.20;;;;;;5113836;27;19919;-66
2022/06/24 07:51:30;;;;;;;;;;;23.50;70.80;;;;;;5113056;27;20271;-66
2022/06/24 07:53:56;;;;;;;;;;;23.50;70.60;;;;;;5114350;27;20328;-66
2022/06/24 07:59:06;;;;;;;;;;;23.50;70.50;;;;;;5117889;27;20015;-66
2022/06/24 08:01:33;;;;;;;;;;;23.50;70.70;;;;;;5114585;27;19955;-67
2022/06/24 08:03:59;;;;;;;;;;;23.50;70.50;;;;;;5115428;27;20394;-71
2022/06/24 08:06:25;;;;;;;;;;;23.50;70.60;;;;;;5114695;27;19923;-71
2022/06/24 08:08:50;;;;;;;;;;;23.50;70.80;;;;;;5116424;27;19929;-70
2022/06/24 08:11:16;;;;;;;;;;;23.50;71.00;;;;;;5111378;27;19927;-69
2022/06/24 08:13:41;;;;;;;;;;;23.50;71.40;;;;;;5115904;27;19927;-66
2022/06/24 08:16:07;;;;;;;;;;;23.50;71.50;;;;;;5116437;27;19923;-66
2022/06/24 08:18:33;;;;;;;;;;;23.50;71.90;;;;;;5113244;27;19931;-66
2022/06/24 08:20:58;;;;;;;;;;;23.50;73.20;;;;;;5095437;27;20267;-66
2022/06/24 08:23:24;;;;;;;;;;;23.50;73.40;;;;;;5112798;27;19923;-67
2022/06/24 08:25:49;;;;;;;;;;;23.50;73.70;;;;;;5115544;27;20970;-66
2022/06/24 08:28:15;;;;;;;;;;;23.50;74.00;;;;;;5098991;27;20167;-68
2022/06/24 08:30:40;;;;;;;;;;;23.50;74.00;;;;;;5114741;27;20357;-67
2022/06/24 08:33:06;;;;;;;;;;;23.50;73.90;;;;;;5092040;27;20378;-67
2022/06/24 08:35:31;;;;;;;;;;;23.50;73.60;;;;;;5112456;27;20397;-69
2022/06/24 08:37:58;;;;;;;;;;;23.50;73.50;;;;;;5111423;27;19930;-67
2022/06/24 08:40:24;;;;;;;;;;;23.50;73.80;;;;;;5112478;27;19923;-65
2022/06/24 08:42:54;;;;;;;;;;;23.50;73.90;;;;;;5093833;27;20297;-62
2022/06/24 08:45:20;;;;;;;;;;;23.50;73.20;;;;;;5111050;27;19931;-66
2022/06/24 08:47:47;;;;;;;;;;;23.50;72.80;;;;;;5098737;27;19955;-66
2022/06/24 08:50:12;;;;;;;;;;;23.50;72.80;;;;;;5093510;27;19988;-67
2022/06/24 08:52:39;;;;;;;;;;;23.50;72.40;;;;;;5109474;27;20375;-66
2022/06/24 08:55:06;;;;;;;;;;;23.50;72.20;;;;;;5111225;27;19923;-67
2022/06/24 08:57:31;;;;;;;;;;;23.50;72.10;;;;;;5111383;27;20379;-67
2022/06/24 08:59:57;;;;;;;;;;;23.50;71.80;;;;;;5089783;27;19933;-66
2022/06/24 09:02:23;;;;;;;;;;;23.50;71.70;;;;;;5109898;27;19946;-67
2022/06/24 09:04:49;;;;;;;;;;;23.50;72.50;;;;;;5095496;27;20403;-69
2022/06/24 09:07:25;;;;;;;;;;;23.60;71.90;;;;;;5092936;27;19927;-71
2022/06/24 09:09:58;;;;;;;;;;;23.60;71.60;;;;;;5089711;27;19923;-73
2022/06/24 09:12:30;;;;;;;;;;;23.60;71.70;;;;;;5109429;27;20084;-71
2022/06/24 09:15:01;;;;;;;;;;;23.60;71.40;;;;;;5092485;27;20010;-71
2022/06/24 09:17:28;;;;;;;;;;;23.60;71.20;;;;;;5092125;27;19955;-70
2022/06/24 09:20:02;;;;;;;;;;;23.60;71.40;;;;;;5096702;27;19923;-70
2022/06/24 09:22:28;;;;;;;;;;;23.60;72.10;;;;;;5110717;27;19924;-69
2022/06/24 09:24:53;;;;;;;;;;;23.60;71.10;;;;;;5111597;27;20286;-67
2022/06/24 09:27:20;;;;;;;;;;;23.50;70.30;;;;;;5094226;27;19929;-67
2022/06/24 09:29:47;;;;;;;;;;;23.60;70.30;;;;;;5113601;27;19932;-67
2022/06/24 09:32:16;;;;;;;;;;;23.50;70.00;;;;;;5110344;27;19923;-68
2022/06/24 09:35:03;;;;;;;;;;;23.50;69.80;;;;;;5094565;27;19972;-68
2022/06/24 09:37:38;;;;;;;;;;;23.50;69.90;;;;;;5115073;27;20706;-61
2022/06/24 09:40:22;;;;;;;;;;;23.50;69.10;;;;;;5116009;27;19931;-66
2022/06/24 09:43:06;;;;;;;;;;;23.50;69.40;;;;;;5095536;27;20328;-70
2022/06/24 09:45:45;;;;;;;;;;;23.50;69.30;;;;;;5095379;27;19976;-69
2022/06/24 09:48:12;;;;;;;;;;;23.50;69.00;;;;;;5113186;27;19926;-68
2022/06/24 09:50:39;;;;;;;;;;;23.50;68.80;;;;;;5109793;27;20018;-68
2022/06/24 09:53:04;;;;;;;;;;;23.50;68.70;;;;;;5094766;27;19923;-69
2022/06/24 09:55:30;;;;;;;;;;;23.50;68.70;;;;;;5094337;27;19989;-69
2022/06/24 09:57:58;;;;;;;;;;;23.50;69.10;;;;;;5111165;27;19923;-70
2022/06/24 10:00:42;;;;;;;;;;;23.50;69.30;;;;;;5110741;27;19962;-68
2022/06/24 10:03:10;;;;;;;;;;;23.50;69.10;;;;;;5114307;27;19923;-69
2022/06/24 10:05:38;;;;;;;;;;;23.50;69.10;;;;;;5113345;27;20314;-69
2022/06/24 10:08:05;;;;;;;;;;;23.50;68.90;;;;;;5095622;27;20280;-68
2022/06/24 10:10:30;;;;;;;;;;;23.50;68.80;;;;;;5111219;27;19919;-67
2022/06/24 10:12:59;;;;;;;;;;;23.50;68.70;;;;;;5091080;27;19931;-68
2022/06/24 10:15:24;;;;;;;;;;;23.50;68.90;;;;;;5094379;27;19972;-68
2022/06/24 10:17:50;;;;;;;;;;;23.50;68.70;;;;;;5097315;27;19927;-68
2022/06/24 10:20:16;;;;;;;;;;;23.50;69.10;;;;;;5112996;27;20018;-69
2022/06/24 10:22:45;;;;;;;;;;;23.50;69.00;;;;;;5111313;27;19969;-69
2022/06/24 10:25:16;;;;;;;;;;;23.50;69.00;;;;;;5108174;27;19924;-66
2022/06/24 10:27:57;;;;;;;;;;;23.50;69.40;;;;;;5108915;27;19934;-68
2022/06/24 10:30:58;;;;;;;;;;;23.50;70.00;;;;;;5110122;27;19924;-69
2022/06/24 10:33:26;;;;;;;;;;;23.50;70.00;;;;;;5061711;28;19934;-68
2022/06/24 10:36:05;;;;;;;;;;;23.50;70.50;;;;;;5111580;27;20034;-68
2022/06/24 10:38:38;;;;;;;;;;;23.60;70.40;;;;;;5094383;28;20647;-68
2022/06/24 10:41:04;;;;;;;;;;;23.50;70.50;;;;;;5097032;28;20286;-68
2022/06/24 10:43:38;;;;;;;;;;;23.50;70.90;;;;;;5092917;28;20409;-67
2022/06/24 10:46:13;;;;;;;;;;;23.60;71.10;;;;;;5112516;27;19966;-68
2022/06/24 10:48:44;;;;;;;;;;;23.60;71.30;;;;;;5093499;27;19919;-66
2022/06/24 10:51:16;;;;;;;;;;;23.60;71.30;;;;;;5111489;28;19930;-67
2022/06/24 10:54:01;;;;;;;;;;;23.60;71.30;;;;;;5113764;27;20209;-67
2022/06/24 10:56:46;;;;;;;;;;;23.60;71.20;;;;;;5098736;27;19923;-66
2022/06/24 10:59:12;;;;;;;;;;;23.60;71.10;;;;;;5116475;27;20291;-67
2022/06/24 11:01:42;;;;;;;;;;;23.60;71.20;;;;;;5097587;27;19928;-67
2022/06/24 11:04:10;;;;;;;;;;;23.60;71.00;;;;;;5113764;27;19920;-68
2022/06/24 11:06:36;;;;;;;;;;;23.60;71.00;;;;;;5113804;27;20449;-69
2022/06/24 11:09:06;;;;;;;;;;;23.60;71.20;;;;;;5094414;27;20030;-68
2022/06/24 11:11:32;;;;;;;;;;;23.60;71.70;;;;;;5114041;27;20038;-68
2022/06/24 11:13:58;;;;;;;;;;;23.60;71.90;;;;;;5114302;27;20003;-68
2022/06/24 11:16:27;;;;;;;;;;;23.60;72.00;;;;;;5116227;27;19919;-70
2022/06/24 11:18:53;;;;;;;;;;;23.60;71.90;;;;;;5113001;27;20371;-70
2022/06/24 11:21:19;;;;;;;;;;;23.60;71.90;;;;;;5097718;27;19919;-69
2022/06/24 11:23:47;;;;;;;;;;;23.60;71.90;;;;;;5113900;27;19984;-68
2022/06/24 11:26:18;;;;;;;;;;;23.60;71.90;;;;;;5117220;27;19919;-68
2022/06/24 11:28:51;;;;;;;;;;;23.60;71.70;;;;;;5115428;27;19976;-68
2022/06/24 11:31:19;;;;;;;;;;;23.60;71.30;;;;;;5112075;27;19934;-68
2022/06/24 11:33:46;;;;;;;;;;;23.60;71.50;;;;;;5111448;27;20757;-68
2022/06/24 11:36:14;;;;;;;;;;;23.60;71.60;;;;;;5112264;27;19935;-68
2022/06/24 11:38:52;;;;;;;;;;;23.60;71.50;;;;;;5113050;27;19994;-68
2022/06/24 11:41:24;;;;;;;;;;;23.60;71.50;;;;;;5114334;27;19930;-68
2022/06/24 11:43:50;;;;;;;;;;;23.60;71.40;;;;;;5114325;27;19935;-71
2022/06/24 11:46:17;;;;;;;;;;;23.60;71.00;;;;;;5113632;27;19930;-66
2022/06/24 11:48:42;;;;;;;;;;;23.60;71.40;;;;;;5112445;27;19928;-64
2022/06/24 11:51:16;;;;;;;;;;;23.60;71.00;;;;;;5090671;27;19927;-66
2022/06/24 11:53:43;;;;;;;;;;;23.60;70.70;;;;;;5118287;27;20820;-66
2022/06/24 11:56:09;;;;;;;;;;;23.60;70.70;;;;;;5105720;27;20013;-67
2022/06/24 11:58:37;;;;;;;;;;;23.60;70.70;;;;;;5115812;27;19930;-66
2022/06/24 12:01:03;;;;;;;;;;;23.60;70.50;;;;;;5112619;27;19919;-66
2022/06/24 12:03:28;;;;;;;;;;;23.60;70.30;;;;;;5115090;27;20018;-65
2022/06/24 12:05:54;;;;;;;;;;;23.60;70.50;;;;;;5112891;27;19981;-66
2022/06/24 12:08:22;;;;;;;;;;;23.60;70.60;;;;;;5114189;27;19963;-67
2022/06/24 12:10:52;;;;;;;;;;;23.60;70.40;;;;;;5111613;27;19919;-67
2022/06/24 12:13:27;;;;;;;;;;;23.60;70.40;;;;;;5113402;27;19923;-66
2022/06/24 12:15:53;;;;;;;;;;;23.60;70.40;;;;;;5101675;27;19923;-66
2022/06/24 12:18:19;;;;;;;;;;;23.60;70.40;;;;;;5112769;27;19926;-66
2022/06/24 12:20:55;;;;;;;;;;;23.60;70.40;;;;;;5112967;27;19963;-66
2022/06/24 12:23:21;;;;;;;;;;;23.60;70.50;;;;;;5113438;27;19924;-66
2022/06/24 12:25:50;;;;;;;;;;;23.60;70.50;;;;;;5093573;27;19928;-67
2022/06/24 12:28:23;;;;;;;;;;;23.60;70.40;;;;;;5113177;27;20468;-66
2022/06/24 12:31:00;;;;;;;;;;;23.60;70.40;;;;;;5113242;27;20371;-66
2022/06/24 12:33:27;;;;;;;;;;;23.60;70.20;;;;;;5094227;27;19945;-66
2022/06/24 12:36:13;;;;;;;;;;;23.60;69.90;;;;;;5089784;27;19970;-66
2022/06/24 12:38:47;;;;;;;;;;;23.60;69.90;;;;;;5094456;27;19919;-66
2022/06/24 12:41:14;;;;;;;;;;;23.60;70.10;;;;;;5072929;27;19962;-66
2022/06/24 12:43:53;;;;;;;;;;;23.60;70.00;;;;;;5110128;27;19923;-66
2022/06/24 12:46:20;;;;;;;;;;;23.60;70.00;;;;;;5110554;27;19993;-66
2022/06/24 12:51:29;;;;;;;;;;;23.60;70.00;;;;;;5111257;27;19930;-67
2022/06/24 12:53:55;;;;;;;;;;;23.60;70.30;;;;;;5114693;27;19924;-66
2022/06/24 12:56:21;;;;;;;;;;;23.60;70.30;;;;;;5113611;27;19923;-67
2022/06/24 12:58:51;;;;;;;;;;;23.60;70.30;;;;;;5111973;27;19968;-66
2022/06/24 13:01:16;;;;;;;;;;;23.60;70.10;;;;;;5114527;27;19923;-67
2022/06/24 13:03:42;;;;;;;;;;;23.60;69.80;;;;;;5094926;27;19934;-67
2022/06/24 13:06:07;;;;;;;;;;;23.60;69.90;;;;;;5113736;27;20018;-67
2022/06/24 13:08:33;;;;;;;;;;;23.60;69.70;;;;;;5113257;27;19927;-66
2022/06/24 13:10:59;;;;;;;;;;;23.60;69.70;;;;;;5112293;27;19934;-66
2022/06/24 13:13:24;;;;;;;;;;;23.60;69.60;;;;;;5112758;27;20360;-66
2022/06/24 13:15:50;;;;;;;;;;;23.60;69.40;;;;;;5111240;27;20291;-66
2022/06/24 13:18:15;;;;;;;;;;;23.60;69.30;;;;;;5114879;27;19961;-67
2022/06/24 13:20:41;;;;;;;;;;;23.70;69.30;;;;;;5110050;27;20050;-66
2022/06/24 13:23:07;;;;;;;;;;;23.70;69.20;;;;;;5113696;27;19959;-66
2022/06/24 13:25:32;;;;;;;;;;;23.70;69.00;;;;;;5109543;27;21680;-67
2022/06/24 13:27:59;;;;;;;;;;;23.70;68.60;;;;;;5112232;27;20273;-67
2022/06/24 13:30:25;;;;;;;;;;;23.70;68.60;;;;;;5113340;27;19924;-67
2022/06/24 13:32:51;;;;;;;;;;;23.70;68.60;;;;;;5112480;27;19937;-66
2022/06/24 13:35:16;;;;;;;;;;;23.70;68.60;;;;;;5114263;27;19962;-66
2022/06/24 13:37:42;;;;;;;;;;;23.70;68.20;;;;;;5096324;27;20010;-66
2022/06/24 13:40:10;;;;;;;;;;;23.70;68.70;;;;;;5113769;27;19923;-66
2022/06/24 13:42:37;;;;;;;;;;;23.70;68.60;;;;;;5112194;27;20003;-66
2022/06/24 13:45:02;;;;;;;;;;;23.70;68.50;;;;;;5116345;27;20046;-66
2022/06/24 13:47:28;;;;;;;;;;;23.70;68.30;;;;;;5114228;27;20010;-66
2022/06/24 13:49:58;;;;;;;;;;;23.80;68.20;;;;;;5114491;27;19920;-66
2022/06/24 13:52:27;;;;;;;;;;;23.80;68.20;;;;;;5111608;27;19942;-66
2022/06/24 13:54:56;;;;;;;;;;;23.80;68.20;;;;;;5115277;27;20789;-66
2022/06/24 13:57:22;;;;;;;;;;;23.80;68.10;;;;;;5113959;27;19930;-66
2022/06/24 13:59:50;;;;;;;;;;;23.80;68.00;;;;;;5094459;28;19990;-66
2022/06/24 14:02:20;;;;;;;;;;;23.80;67.80;;;;;;5112499;27;19958;-66
2022/06/24 14:04:46;;;;;;;;;;;23.80;67.70;;;;;;5111790;27;19931;-66
2022/06/24 14:07:12;;;;;;;;;;;23.80;67.60;;;;;;5077088;27;19927;-66
2022/06/24 14:09:37;;;;;;;;;;;23.80;67.80;;;;;;5111823;27;20351;-65
2022/06/24 14:12:03;;;;;;;;;;;23.80;68.50;;;;;;5113024;27;19979;-66
2022/06/24 14:14:29;;;;;;;;;;;23.80;67.60;;;;;;5111704;27;20026;-66
2022/06/24 14:16:54;;;;;;;;;;;23.80;67.50;;;;;;5111719;27;20019;-65
2022/06/24 14:19:20;;;;;;;;;;;23.80;67.40;;;;;;5112466;27;19992;-66
2022/06/24 14:21:46;;;;;;;;;;;23.80;67.80;;;;;;5111368;27;19920;-66
2022/06/24 14:26:56;;;;;;;;;;;23.80;68.20;;;;;;5096475;27;19920;-65
2022/06/24 14:29:21;;;;;;;;;;;23.80;68.20;;;;;;5076655;27;19997;-66
2022/06/24 14:31:47;;;;;;;;;;;23.80;68.20;;;;;;5112001;27;20557;-66
2022/06/24 14:34:12;;;;;;;;;;;23.80;68.50;;;;;;5111029;27;20484;-65
2022/06/24 14:36:38;;;;;;;;;;;23.80;68.30;;;;;;5111539;27;20002;-66